KHEY/HEY METAR and TAF weather

Enter ICAO airport designator
Station Type Date Time Source
KHEY METAR 2018/12/12 08:27 UTC NOAA

KHEY 120827Z AUTO 00000KT 10SM SCT250 M02/M02 A3026 RMK AO2 SLP251


Station Type Date Time Source
KHEY Decoded METAR 2018/12/12 08:27 UTC NOAA

Hanchey AHP / Ozark, AL, United States (KHEY) 31-21N 085-40W
Dec 12, 2018 - 03:27 AM EST / 2018.12.12 0827 UTC
Wind: Calm:0
Visibility: 10 mile(s):0
Sky conditions: partly cloudy
Temperature: 28 F (-2 C)
Dew Point: 28 F (-2 C)
Relative Humidity: 100%
Pressure (altimeter): 30.26 in. Hg (1024 hPa)
ob: KHEY 120827Z AUTO 00000KT 10SM SCT250 M02/M02 A3026 RMK AO2 SLP251
cycle: 8

Station Type Date Time Source
KHEY TAF UTC NOAA

Error!


Example: see airport list